Time;durP1;ratioP1;P1;durP2;ratioP2;P2;SDS_P1;SDS_P2;PMS_P1;PMS_P2;Temp;Humidity;BMP_temperature;BMP_pressure;BME280_temperature;BME280_humidity;BME280_pressure;Samples;Min_cycle;Max_cycle;Signal;HPM_P1;HPM_P2
2023/05/31 00:01:19;;;;;;;0.82;0.82;;;;;;;19.85;60.87;102453.50;20815287;28;20049;-70
2023/05/31 00:11:22;;;;;;;1.10;0.65;;;;;;;19.84;60.55;102452.63;20814971;28;20049;-70
2023/05/31 00:21:23;;;;;;;1.20;0.80;;;;;;;19.85;60.63;102454.34;20802795;28;20054;-70
2023/05/31 00:31:25;;;;;;;0.73;0.73;;;;;;;19.86;60.61;102450.66;20819006;28;20084;-70
2023/05/31 00:41:27;;;;;;;1.35;0.80;;;;;;;19.85;60.22;102454.34;20846518;28;20069;-70
2023/05/31 00:51:31;;;;;;;1.20;1.02;;;;;;;19.86;59.45;102461.47;20788571;28;20116;-70
2023/05/31 01:01:33;;;;;;;1.30;1.10;;;;;;;19.85;59.46;102454.34;20818259;28;20049;-70
2023/05/31 01:11:53;;;;;;;1.13;1.00;;;;;;;19.86;58.68;102445.25;20880270;28;20037;-70
2023/05/31 01:22:14;;;;;;;1.10;0.93;;;;;;;19.77;59.28;102439.69;20865917;28;20046;-70
2023/05/31 01:32:18;;;;;;;1.00;0.90;;;;;;;19.74;58.76;102424.53;20817175;28;20072;-70
2023/05/31 01:42:21;;;;;;;1.20;0.98;;;;;;;19.80;58.65;102429.50;20832428;28;20053;-70
2023/05/31 01:52:23;;;;;;;0.90;0.77;;;;;;;19.80;58.01;102428.66;20816897;28;20680;-70
2023/05/31 02:02:24;;;;;;;0.68;0.68;;;;;;;19.81;57.91;102435.78;20812914;28;20524;-70
2023/05/31 02:12:26;;;;;;;1.17;0.90;;;;;;;19.80;57.94;102434.91;20887512;28;20482;-70
2023/05/31 02:22:28;;;;;;;0.90;0.80;;;;;;;19.79;57.71;102426.91;20825464;28;20076;-69
2023/05/31 02:32:35;;;;;;;2.38;1.20;;;;;;;19.78;58.81;102439.56;20809959;28;20057;-69
2023/05/31 02:42:41;;;;;;;2.35;0.98;;;;;;;19.74;59.26;102451.56;20809104;28;20060;-69
2023/05/31 02:52:43;;;;;;;1.30;1.10;;;;;;;19.70;60.07;102452.75;20826435;28;20049;-69
2023/05/31 03:02:47;;;;;;;;;;;;;;;19.71;59.72;102451.78;20843500;28;20725;-69
2023/05/31 03:13:09;;;;;;;1.70;1.00;;;;;;;19.68;59.50;102452.88;20909523;28;19921;-69
2023/05/31 03:23:11;;;;;;;0.98;0.88;;;;;;;19.70;59.58;102450.06;20908313;28;20055;-69
2023/05/31 03:33:13;;;;;;;1.35;1.10;;;;;;;19.68;59.26;102438.50;20907123;28;20059;-69
2023/05/31 03:43:15;;;;;;;0.77;0.77;;;;;;;19.67;59.05;102444.88;20906490;28;20101;-69
2023/05/31 03:53:18;;;;;;;1.38;0.90;;;;;;;19.67;58.62;102444.88;20889297;28;20135;-69
2023/05/31 04:03:20;;;;;;;1.13;0.90;;;;;;;19.67;58.80;102452.97;20890116;28;20135;-69
2023/05/31 04:13:24;;;;;;;1.77;0.97;;;;;;;19.69;58.93;102461.84;20903884;28;20140;-69
2023/05/31 04:23:26;;;;;;;1.40;0.88;;;;;;;19.74;59.01;102465.06;20885973;28;20454;-69
2023/05/31 04:33:29;;;;;;;1.52;1.05;;;;;;;19.79;59.06;102464.75;20902213;28;20049;-69
2023/05/31 04:43:32;;;;;;;1.10;1.00;;;;;;;19.82;59.00;102454.56;20901630;28;20060;-69
2023/05/31 04:53:33;;;;;;;1.38;1.13;;;;;;;19.85;58.50;102464.31;20901718;28;20106;-69
2023/05/31 05:03:35;;;;;;;1.20;1.10;;;;;;;19.85;59.58;102470.56;20853377;28;20386;-69
2023/05/31 05:13:38;;;;;;;1.40;1.17;;;;;;;19.89;59.17;102470.38;20809048;28;20052;-68
2023/05/31 05:23:40;;;;;;;3.58;1.50;;;;;;;19.91;59.64;102469.28;20816370;28;20059;-65
2023/05/31 05:33:42;;;;;;;2.17;1.13;;;;;;;19.94;60.67;102457.41;20788434;28;20077;-66
2023/05/31 05:43:44;;;;;;;2.35;1.17;;;;;;;19.97;61.31;102470.69;20798926;28;20037;-67
2023/05/31 05:53:48;;;;;;;1.93;1.40;;;;;;;19.99;61.84;102460.63;20802510;28;20125;-67
2023/05/31 06:03:50;;;;;;;5.03;1.60;;;;;;;20.02;63.59;102465.81;20803078;28;20058;-66
2023/05/31 06:13:56;;;;;;;3.60;1.60;;;;;;;20.03;64.02;102467.53;20811392;28;20037;-66
2023/05/31 06:24:03;;;;;;;4.70;1.48;;;;;;;20.05;64.86;102441.25;20807401;28;20142;-66
2023/05/31 06:34:05;;;;;;;2.67;1.33;;;;;;;20.09;64.67;102452.69;20800058;28;20053;-68
2023/05/31 06:44:07;;;;;;;5.07;1.60;;;;;;;20.13;64.88;102455.06;20803306;28;20752;-66
2023/05/31 06:54:15;;;;;;;7.22;1.75;;;;;;;20.18;65.71;102453.84;20819558;28;20048;-65
2023/05/31 07:04:20;;;;;;;3.60;1.60;;;;;;;20.17;65.45;102452.13;20841377;28;20049;-65
2023/05/31 07:14:23;;;;;;;3.22;1.58;;;;;;;20.25;65.79;102455.13;20821983;28;20050;-64
2023/05/31 07:24:25;;;;;;;4.28;1.92;;;;;;;20.30;65.87;102450.22;20822471;28;20056;-64
2023/05/31 07:34:26;;;;;;;3.80;1.80;;;;;;;20.41;65.43;102449.44;20825750;28;20120;-64
2023/05/31 07:44:28;;;;;;;4.53;1.40;;;;;;;20.60;65.21;102448.91;20824868;28;20572;-64
2023/05/31 07:54:30;;;;;;;3.60;1.65;;;;;;;20.70;64.42;102428.28;20832015;28;20103;-64
2023/05/31 08:04:31;;;;;;;2.78;1.45;;;;;;;20.85;64.51;102423.56;20904047;28;20092;-64
2023/05/31 08:14:33;;;;;;;2.65;1.60;;;;;;;21.74;62.65;102438.34;20905278;28;20136;-64
2023/05/31 08:24:35;;;;;;;2.08;1.60;;;;;;;23.56;56.09;102421.22;20904074;28;20068;-64
2023/05/31 08:34:36;;;;;;;2.90;1.98;;;;;;;24.39;52.86;102421.97;20902430;28;20132;-65
2023/05/31 08:44:38;;;;;;;3.10;1.70;;;;;;;24.80;51.41;102419.13;20903114;28;20045;-64
2023/05/31 08:54:42;;;;;;;2.03;1.42;;;;;;;25.25;49.65;102418.44;20886865;28;20136;-64
2023/05/31 09:04:43;;;;;;;3.38;1.77;;;;;;;24.25;51.48;102401.50;20899506;28;20048;-64
2023/05/31 09:14:46;;;;;;;1.60;1.13;;;;;;;23.42;53.13;102391.69;20900791;28;20049;-64
2023/05/31 09:24:55;;;;;;;2.42;1.67;;;;;;;22.91;54.65;102393.41;20882302;28;20128;-64
2023/05/31 09:35:10;;;;;;;2.50;1.50;;;;;;;22.59;55.76;102387.06;20900344;28;20504;-64
2023/05/31 09:45:12;;;;;;;1.40;1.15;;;;;;;22.40;56.39;102374.19;20899864;28;20041;-64
2023/05/31 09:55:15;;;;;;;2.70;1.80;;;;;;;22.28;56.84;102367.94;20870961;28;20056;-64
2023/05/31 10:05:19;;;;;;;2.65;1.27;;;;;;;22.19;57.73;102366.00;20881472;28;20067;-64
2023/05/31 10:15:27;;;;;;;1.95;1.10;;;;;;;22.11;57.70;102364.81;20899961;28;20543;-64
2023/05/31 10:25:33;;;;;;;3.67;1.25;;;;;;;22.07;58.36;102360.59;20913564;28;20099;-64
2023/05/31 10:35:34;;;;;;;2.17;1.58;;;;;;;22.01;57.91;102348.44;20911182;28;20055;-64
2023/05/31 10:45:39;;;;;;;1.73;1.33;;;;;;;21.96;58.45;102347.97;20912058;28;20053;-64
2023/05/31 10:55:42;;;;;;;2.92;1.35;;;;;;;21.92;58.89;102326.66;20896044;28;20098;-64
2023/05/31 11:05:54;;;;;;;1.95;1.35;;;;;;;21.90;58.83;102313.25;20814041;28;20521;-64
2023/05/31 11:15:56;;;;;;;2.03;1.40;;;;;;;21.91;59.18;102311.38;20759760;28;20608;-64
2023/05/31 11:26:10;;;;;;;2.55;1.42;;;;;;;21.89;60.02;102306.09;20811544;28;20099;-64
2023/05/31 11:36:14;;;;;;;1.77;1.43;;;;;;;21.85;59.90;102289.22;20815634;28;20050;-64
2023/05/31 11:46:16;;;;;;;3.43;1.40;;;;;;;21.80;61.06;102288.75;20809080;28;20052;-64
2023/05/31 11:56:28;;;;;;;1.95;1.40;;;;;;;21.77;61.11;102280.88;20800059;28;20304;-65
2023/05/31 12:06:31;;;;;;;2.20;1.40;;;;;;;21.79;61.01;102287.03;20807834;28;20120;-64
2023/05/31 12:16:33;;;;;;;1.75;1.20;;;;;;;21.82;62.76;102278.63;20803481;28;20050;-66
2023/05/31 12:26:37;;;;;;;1.95;1.45;;;;;;;21.83;61.52;102264.09;20802234;28;20400;-64
2023/05/31 12:36:47;;;;;;;2.85;1.35;;;;;;;21.85;61.93;102266.66;20781851;28;20057;-65
2023/05/31 12:46:51;;;;;;;4.68;1.67;;;;;;;21.85;62.15;102267.53;20792164;28;20052;-64
2023/05/31 12:56:53;;;;;;;6.85;1.63;;;;;;;21.86;62.24;102250.28;20793945;28;20068;-64
2023/05/31 13:06:58;;;;;;;1.60;1.40;;;;;;;21.92;62.44;102253.44;20807968;28;20050;-65
2023/05/31 13:17:00;;;;;;;3.45;1.48;;;;;;;21.92;62.62;102251.63;20792858;28;20127;-66
2023/05/31 13:27:03;;;;;;;3.05;1.67;;;;;;;21.91;63.35;102244.47;20789699;28;20693;-65
2023/05/31 13:37:05;;;;;;;4.82;1.60;;;;;;;21.88;63.38;102232.03;20798042;28;20068;-66
2023/05/31 13:47:07;;;;;;;2.42;1.63;;;;;;;21.88;63.76;102234.72;20792702;28;20092;-66
2023/05/31 13:57:09;;;;;;;4.55;1.90;;;;;;;21.88;64.12;102223.88;20806892;28;20057;-67
2023/05/31 14:07:10;;;;;;;2.20;1.50;;;;;;;21.84;63.94;102203.47;20807848;28;20084;-66
2023/05/31 14:17:12;;;;;;;1.90;1.55;;;;;;;21.84;63.36;102205.28;20811189;28;20052;-65
2023/05/31 14:27:17;;;;;;;2.33;1.40;;;;;;;21.84;63.99;102200.75;20828833;28;20053;-65
2023/05/31 14:37:19;;;;;;;1.90;1.42;;;;;;;21.80;62.99;102193.88;20822846;28;20045;-66
2023/05/31 14:47:37;;;;;;;4.05;1.33;;;;;;;21.77;62.17;102177.88;20804734;28;20564;-65
2023/05/31 14:57:40;;;;;;;4.00;1.45;;;;;;;21.76;61.65;102167.16;20817397;28;20072;-65
2023/05/31 15:07:41;;;;;;;3.65;1.50;;;;;;;21.75;62.31;102179.84;20822566;28;20057;-66
2023/05/31 15:17:46;;;;;;;2.53;1.38;;;;;;;21.75;61.75;102178.97;20800903;28;20135;-72
2023/05/31 15:27:48;;;;;;;4.32;2.00;;;;;;;21.74;61.86;102167.28;20793314;28;20051;-71
2023/05/31 15:37:50;;;;;;;3.03;1.50;;;;;;;21.76;63.42;102181.56;20792347;28;20042;-71
2023/05/31 15:47:52;;;;;;;5.07;1.70;;;;;;;21.80;63.76;102183.03;20794386;28;20679;-71
2023/05/31 15:57:55;;;;;;;3.72;1.33;;;;;;;21.87;63.52;102181.50;20785662;28;20044;-69
2023/05/31 16:07:59;;;;;;;2.60;1.33;;;;;;;21.87;64.23;102172.50;20794668;28;20071;-65
2023/05/31 16:18:01;;;;;;;4.35;1.25;;;;;;;21.94;66.98;102172.84;20802162;28;20041;-68
2023/05/31 16:28:05;;;;;;;3.08;1.45;;;;;;;21.97;67.99;102183.41;20797319;28;20045;-67
2023/05/31 16:38:06;;;;;;;1.67;1.20;;;;;;;21.98;68.09;102168.88;20787536;28;20587;-67
2023/05/31 16:48:08;;;;;;;2.03;1.38;;;;;;;21.98;67.07;102182.44;20799316;28;20107;-66
2023/05/31 16:58:10;;;;;;;3.60;1.40;;;;;;;21.94;66.88;102162.88;20773686;28;20127;-64
2023/05/31 17:08:11;;;;;;;2.22;1.40;;;;;;;21.93;66.50;102171.13;20777862;28;20088;-65
2023/05/31 17:18:13;;;;;;;3.42;1.77;;;;;;;21.88;66.79;102161.53;20826386;28;20052;-66
2023/05/31 17:28:15;;;;;;;5.03;2.15;;;;;;;21.80;64.12;102158.63;20795570;28;20594;-65
2023/05/31 17:38:16;;;;;;;2.72;1.90;;;;;;;21.71;64.63;102145.88;20796545;28;20561;-66
2023/05/31 17:48:18;;;;;;;3.88;1.65;;;;;;;21.68;64.42;102151.56;20789811;28;20076;-66
2023/05/31 17:58:22;;;;;;;5.38;2.17;;;;;;;21.65;64.03;102140.94;20789538;28;20062;-66
2023/05/31 18:08:25;;;;;;;4.13;2.00;;;;;;;21.61;63.74;102144.88;20774452;28;20085;-66
2023/05/31 18:18:29;;;;;;;3.33;2.20;;;;;;;21.58;63.30;102155.00;20770475;28;20052;-66
2023/05/31 18:28:30;;;;;;;4.43;2.80;;;;;;;21.56;62.95;102150.72;20793218;28;20128;-66
2023/05/31 18:38:45;;;;;;;4.47;2.58;;;;;;;21.52;62.42;102147.41;20799777;28;20045;-69
2023/05/31 18:48:47;;;;;;;;;;;;;;;21.46;62.11;102152.50;20825415;28;20061;-68
2023/05/31 18:58:49;;;;;;;4.03;2.20;;;;;;;21.38;61.75;102156.69;20829407;28;19921;-68
2023/05/31 19:08:51;;;;;;;4.30;2.53;;;;;;;21.32;61.37;102156.34;20824655;28;20136;-68
2023/05/31 19:18:52;;;;;;;3.53;2.35;;;;;;;21.27;61.03;102146.78;20824231;28;20088;-69
2023/05/31 19:28:54;;;;;;;3.72;2.25;;;;;;;21.23;60.82;102139.03;20825344;28;20103;-68
2023/05/31 19:38:57;;;;;;;2.65;2.00;;;;;;;21.21;60.51;102143.72;20842418;28;20045;-68
2023/05/31 19:48:58;;;;;;;2.92;2.22;;;;;;;21.17;60.32;102142.25;20905951;28;20045;-68
2023/05/31 19:59:00;;;;;;;4.60;2.42;;;;;;;21.15;63.73;102145.94;20884754;28;20081;-68
2023/05/31 20:09:02;;;;;;;4.57;2.35;;;;;;;21.18;63.52;102142.09;20818303;28;20053;-68
2023/05/31 20:19:05;;;;;;;5.68;2.40;;;;;;;21.11;62.13;102144.47;20818011;28;20141;-69
2023/05/31 20:29:06;;;;;;;2.92;2.08;;;;;;;21.09;62.13;102151.00;20821909;28;20053;-68
2023/05/31 20:39:08;;;;;;;3.20;2.10;;;;;;;21.02;61.35;102150.66;20805657;28;20156;-68
2023/05/31 20:49:10;;;;;;;4.75;2.10;;;;;;;20.98;61.27;102150.03;20799886;28;20505;-68
2023/05/31 20:59:12;;;;;;;3.58;2.00;;;;;;;20.95;61.02;102149.44;20798810;28;20671;-68
2023/05/31 21:09:13;;;;;;;3.25;2.10;;;;;;;20.92;60.75;102153.25;20806118;28;20136;-68
2023/05/31 21:19:15;;;;;;;4.13;2.13;;;;;;;20.88;60.70;102151.78;20817594;28;20057;-68
2023/05/31 21:29:16;;;;;;;3.55;1.85;;;;;;;20.85;60.52;102162.88;20817559;28;20590;-69
2023/05/31 21:39:22;;;;;;;3.53;1.77;;;;;;;20.83;60.52;102162.97;20863499;28;20065;-68
2023/05/31 21:49:24;;;;;;;4.03;1.80;;;;;;;20.82;60.22;102160.41;20848909;28;20107;-68
2023/05/31 21:59:25;;;;;;;4.00;1.83;;;;;;;20.79;60.18;102160.66;20817243;28;20124;-68
2023/05/31 22:09:27;;;;;;;2.50;1.60;;;;;;;20.78;60.02;102158.91;20843978;28;20081;-68
2023/05/31 22:19:30;;;;;;;3.17;2.00;;;;;;;20.78;59.81;102169.75;20768321;28;20100;-68
2023/05/31 22:29:32;;;;;;;3.15;1.92;;;;;;;20.76;59.58;102155.44;20831451;28;20053;-68
2023/05/31 22:39:34;;;;;;;3.10;1.60;;;;;;;20.75;59.31;102161.84;20841544;28;20107;-68
2023/05/31 22:49:35;;;;;;;3.72;1.90;;;;;;;20.71;59.04;102151.28;20829921;28;20529;-68
2023/05/31 22:59:37;;;;;;;3.00;1.90;;;;;;;20.70;58.88;102154.13;20829235;28;20057;-69
2023/05/31 23:09:38;;;;;;;2.95;2.05;;;;;;;20.68;58.65;102159.63;20858289;28;20112;-68
2023/05/31 23:19:40;;;;;;;4.45;2.05;;;;;;;20.66;58.38;102145.38;20827458;28;20049;-68
2023/05/31 23:29:42;;;;;;;3.47;1.77;;;;;;;20.65;58.34;102154.47;20813820;28;20053;-68
2023/05/31 23:39:43;;;;;;;2.88;1.60;;;;;;;20.62;58.23;102148.47;20816519;28;20484;-68
2023/05/31 23:49:45;;;;;;;3.85;1.88;;;;;;;20.60;58.18;102148.59;20814424;28;20399;-68
2023/05/31 23:59:46;;;;;;;2.95;2.10;;;;;;;20.56;58.03;102133.59;20815497;28;20049;-68
